sensor_id;sensor_type;location;lat;lon;timestamp;P1;durP1;ratioP1;P2;durP2;ratioP2
40997;SDS011;26740;45.944;12.480;2023-06-26T00:02:08;3.63;;;2.05;;
40997;SDS011;26740;45.944;12.480;2023-06-26T00:04:34;4.05;;;2.35;;
40997;SDS011;26740;45.944;12.480;2023-06-26T00:07:00;2.35;;;2.10;;
40997;SDS011;26740;45.944;12.480;2023-06-26T00:09:26;2.38;;;2.17;;
40997;SDS011;26740;45.944;12.480;2023-06-26T00:11:51;4.05;;;2.78;;
40997;SDS011;26740;45.944;12.480;2023-06-26T00:14:17;3.80;;;2.50;;
40997;SDS011;26740;45.944;12.480;2023-06-26T00:16:48;2.63;;;2.42;;
40997;SDS011;26740;45.944;12.480;2023-06-26T00:19:15;2.78;;;2.50;;
40997;SDS011;26740;45.944;12.480;2023-06-26T00:21:40;5.43;;;2.80;;
40997;SDS011;26740;45.944;12.480;2023-06-26T00:24:05;3.13;;;2.33;;
40997;SDS011;26740;45.944;12.480;2023-06-26T00:26:31;3.47;;;2.50;;
40997;SDS011;26740;45.944;12.480;2023-06-26T00:28:56;3.35;;;2.95;;
40997;SDS011;26740;45.944;12.480;2023-06-26T00:31:21;2.90;;;2.60;;
40997;SDS011;26740;45.944;12.480;2023-06-26T00:33:47;3.17;;;2.88;;
40997;SDS011;26740;45.944;12.480;2023-06-26T00:36:12;3.92;;;3.00;;
40997;SDS011;26740;45.944;12.480;2023-06-26T00:38:38;3.88;;;2.75;;
40997;SDS011;26740;45.944;12.480;2023-06-26T00:41:03;4.10;;;2.75;;
40997;SDS011;26740;45.944;12.480;2023-06-26T00:43:30;7.25;;;2.85;;
40997;SDS011;26740;45.944;12.480;2023-06-26T00:45:55;3.60;;;2.42;;
40997;SDS011;26740;45.944;12.480;2023-06-26T00:48:20;3.78;;;3.10;;
40997;SDS011;26740;45.944;12.480;2023-06-26T00:50:46;5.65;;;3.15;;
40997;SDS011;26740;45.944;12.480;2023-06-26T00:53:11;3.03;;;2.83;;
40997;SDS011;26740;45.944;12.480;2023-06-26T00:55:37;4.38;;;2.70;;
40997;SDS011;26740;45.944;12.480;2023-06-26T00:58:03;3.75;;;2.38;;
40997;SDS011;26740;45.944;12.480;2023-06-26T01:00:28;5.75;;;3.20;;
40997;SDS011;26740;45.944;12.480;2023-06-26T01:02:54;2.95;;;2.60;;
40997;SDS011;26740;45.944;12.480;2023-06-26T01:05:24;9.40;;;3.22;;
40997;SDS011;26740;45.944;12.480;2023-06-26T01:07:49;6.38;;;3.53;;
40997;SDS011;26740;45.944;12.480;2023-06-26T01:10:15;5.95;;;2.47;;
40997;SDS011;26740;45.944;12.480;2023-06-26T01:12:41;4.35;;;2.67;;
40997;SDS011;26740;45.944;12.480;2023-06-26T01:15:06;5.82;;;3.13;;
40997;SDS011;26740;45.944;12.480;2023-06-26T01:17:32;3.80;;;2.72;;
40997;SDS011;26740;45.944;12.480;2023-06-26T01:19:58;3.65;;;3.30;;
40997;SDS011;26740;45.944;12.480;2023-06-26T01:25:21;3.47;;;3.17;;
40997;SDS011;26740;45.944;12.480;2023-06-26T01:27:50;4.88;;;2.65;;
40997;SDS011;26740;45.944;12.480;2023-06-26T01:30:17;4.40;;;2.83;;
40997;SDS011;26740;45.944;12.480;2023-06-26T01:32:43;5.95;;;3.72;;
40997;SDS011;26740;45.944;12.480;2023-06-26T01:35:09;6.50;;;2.90;;
40997;SDS011;26740;45.944;12.480;2023-06-26T01:37:36;5.30;;;3.75;;
40997;SDS011;26740;45.944;12.480;2023-06-26T01:40:01;5.35;;;3.25;;
40997;SDS011;26740;45.944;12.480;2023-06-26T01:42:30;3.90;;;3.50;;
40997;SDS011;26740;45.944;12.480;2023-06-26T01:44:55;3.30;;;3.00;;
40997;SDS011;26740;45.944;12.480;2023-06-26T01:47:22;4.35;;;3.63;;
40997;SDS011;26740;45.944;12.480;2023-06-26T01:49:55;3.78;;;3.00;;
40997;SDS011;26740;45.944;12.480;2023-06-26T01:52:23;4.28;;;3.30;;
40997;SDS011;26740;45.944;12.480;2023-06-26T01:55:10;6.07;;;3.25;;
40997;SDS011;26740;45.944;12.480;2023-06-26T01:57:37;9.10;;;3.67;;
40997;SDS011;26740;45.944;12.480;2023-06-26T02:00:03;3.28;;;2.97;;
40997;SDS011;26740;45.944;12.480;2023-06-26T02:02:29;3.75;;;3.35;;
40997;SDS011;26740;45.944;12.480;2023-06-26T02:04:54;3.28;;;2.97;;
40997;SDS011;26740;45.944;12.480;2023-06-26T02:07:20;4.25;;;3.65;;
40997;SDS011;26740;45.944;12.480;2023-06-26T02:09:45;3.85;;;3.47;;
40997;SDS011;26740;45.944;12.480;2023-06-26T02:12:11;3.45;;;2.95;;
40997;SDS011;26740;45.944;12.480;2023-06-26T02:14:36;4.00;;;3.40;;
40997;SDS011;26740;45.944;12.480;2023-06-26T02:17:02;3.80;;;3.40;;
40997;SDS011;26740;45.944;12.480;2023-06-26T02:19:27;5.00;;;3.60;;
40997;SDS011;26740;45.944;12.480;2023-06-26T02:21:53;4.35;;;3.67;;
40997;SDS011;26740;45.944;12.480;2023-06-26T02:24:18;3.88;;;3.25;;
40997;SDS011;26740;45.944;12.480;2023-06-26T02:26:44;6.13;;;3.58;;
40997;SDS011;26740;45.944;12.480;2023-06-26T02:29:09;4.35;;;3.80;;
40997;SDS011;26740;45.944;12.480;2023-06-26T02:31:35;4.25;;;3.42;;
40997;SDS011;26740;45.944;12.480;2023-06-26T02:34:00;4.47;;;3.40;;
40997;SDS011;26740;45.944;12.480;2023-06-26T02:36:25;4.03;;;3.72;;
40997;SDS011;26740;45.944;12.480;2023-06-26T02:38:51;3.50;;;3.20;;
40997;SDS011;26740;45.944;12.480;2023-06-26T02:41:16;3.70;;;3.40;;
40997;SDS011;26740;45.944;12.480;2023-06-26T02:43:41;4.15;;;3.35;;
40997;SDS011;26740;45.944;12.480;2023-06-26T02:46:07;5.15;;;4.13;;
40997;SDS011;26740;45.944;12.480;2023-06-26T02:48:32;4.43;;;3.58;;
40997;SDS011;26740;45.944;12.480;2023-06-26T02:50:58;6.07;;;3.85;;
40997;SDS011;26740;45.944;12.480;2023-06-26T02:53:23;4.00;;;3.60;;
40997;SDS011;26740;45.944;12.480;2023-06-26T02:55:49;4.95;;;3.63;;
40997;SDS011;26740;45.944;12.480;2023-06-26T02:58:14;4.50;;;4.10;;
40997;SDS011;26740;45.944;12.480;2023-06-26T03:00:40;4.93;;;3.90;;
40997;SDS011;26740;45.944;12.480;2023-06-26T03:03:06;4.55;;;4.15;;
40997;SDS011;26740;45.944;12.480;2023-06-26T03:05:32;4.15;;;3.42;;
40997;SDS011;26740;45.944;12.480;2023-06-26T03:07:57;4.15;;;3.75;;
40997;SDS011;26740;45.944;12.480;2023-06-26T03:10:23;4.22;;;3.28;;
40997;SDS011;26740;45.944;12.480;2023-06-26T03:12:48;3.70;;;3.40;;
40997;SDS011;26740;45.944;12.480;2023-06-26T03:15:14;6.18;;;3.58;;
40997;SDS011;26740;45.944;12.480;2023-06-26T03:17:39;4.90;;;3.33;;
40997;SDS011;26740;45.944;12.480;2023-06-26T03:20:05;4.45;;;4.15;;
40997;SDS011;26740;45.944;12.480;2023-06-26T03:22:32;3.95;;;3.65;;
40997;SDS011;26740;45.944;12.480;2023-06-26T03:24:57;6.65;;;4.95;;
40997;SDS011;26740;45.944;12.480;2023-06-26T03:27:23;4.55;;;3.33;;
40997;SDS011;26740;45.944;12.480;2023-06-26T03:29:48;4.30;;;3.95;;
40997;SDS011;26740;45.944;12.480;2023-06-26T03:32:14;6.22;;;4.30;;
40997;SDS011;26740;45.944;12.480;2023-06-26T03:34:39;4.57;;;4.18;;
40997;SDS011;26740;45.944;12.480;2023-06-26T03:37:04;4.18;;;3.78;;
40997;SDS011;26740;45.944;12.480;2023-06-26T03:39:30;4.43;;;4.03;;
40997;SDS011;26740;45.944;12.480;2023-06-26T03:41:55;4.82;;;3.88;;
40997;SDS011;26740;45.944;12.480;2023-06-26T03:44:25;4.33;;;3.90;;
40997;SDS011;26740;45.944;12.480;2023-06-26T03:46:50;4.38;;;3.97;;
40997;SDS011;26740;45.944;12.480;2023-06-26T03:49:16;4.38;;;3.65;;
40997;SDS011;26740;45.944;12.480;2023-06-26T03:51:41;5.95;;;4.43;;
40997;SDS011;26740;45.944;12.480;2023-06-26T03:54:06;4.38;;;3.60;;
40997;SDS011;26740;45.944;12.480;2023-06-26T03:56:32;4.28;;;3.88;;
40997;SDS011;26740;45.944;12.480;2023-06-26T03:58:57;3.95;;;3.60;;
40997;SDS011;26740;45.944;12.480;2023-06-26T04:01:23;3.97;;;3.58;;
40997;SDS011;26740;45.944;12.480;2023-06-26T04:03:48;6.50;;;4.15;;
40997;SDS011;26740;45.944;12.480;2023-06-26T04:06:13;4.05;;;3.63;;
40997;SDS011;26740;45.944;12.480;2023-06-26T04:08:39;4.85;;;3.97;;
40997;SDS011;26740;45.944;12.480;2023-06-26T04:11:04;3.85;;;3.55;;
40997;SDS011;26740;45.944;12.480;2023-06-26T04:13:30;3.83;;;3.53;;
40997;SDS011;26740;45.944;12.480;2023-06-26T04:15:55;3.72;;;3.42;;
40997;SDS011;26740;45.944;12.480;2023-06-26T04:18:20;3.85;;;3.50;;
40997;SDS011;26740;45.944;12.480;2023-06-26T04:21:05;3.80;;;3.22;;
40997;SDS011;26740;45.944;12.480;2023-06-26T04:23:32;4.63;;;3.55;;
40997;SDS011;26740;45.944;12.480;2023-06-26T04:25:57;4.03;;;3.47;;
40997;SDS011;26740;45.944;12.480;2023-06-26T04:28:23;4.43;;;3.70;;
40997;SDS011;26740;45.944;12.480;2023-06-26T04:30:49;4.10;;;3.42;;
40997;SDS011;26740;45.944;12.480;2023-06-26T04:33:14;5.22;;;3.42;;
40997;SDS011;26740;45.944;12.480;2023-06-26T04:35:40;3.17;;;2.97;;
40997;SDS011;26740;45.944;12.480;2023-06-26T04:38:05;3.28;;;2.97;;
40997;SDS011;26740;45.944;12.480;2023-06-26T04:40:31;3.53;;;3.10;;
40997;SDS011;26740;45.944;12.480;2023-06-26T04:42:56;5.07;;;2.92;;
40997;SDS011;26740;45.944;12.480;2023-06-26T04:45:22;8.57;;;3.45;;
40997;SDS011;26740;45.944;12.480;2023-06-26T04:47:47;3.67;;;3.33;;
40997;SDS011;26740;45.944;12.480;2023-06-26T04:50:13;3.97;;;3.58;;
40997;SDS011;26740;45.944;12.480;2023-06-26T04:52:38;6.82;;;3.80;;
40997;SDS011;26740;45.944;12.480;2023-06-26T04:55:03;5.43;;;3.58;;
40997;SDS011;26740;45.944;12.480;2023-06-26T04:57:29;3.75;;;3.40;;
40997;SDS011;26740;45.944;12.480;2023-06-26T04:59:54;3.72;;;3.40;;
40997;SDS011;26740;45.944;12.480;2023-06-26T05:02:20;4.65;;;3.60;;
40997;SDS011;26740;45.944;12.480;2023-06-26T05:04:45;3.72;;;3.30;;
40997;SDS011;26740;45.944;12.480;2023-06-26T05:07:12;3.65;;;3.35;;
40997;SDS011;26740;45.944;12.480;2023-06-26T05:09:37;3.42;;;3.13;;
40997;SDS011;26740;45.944;12.480;2023-06-26T05:12:03;4.85;;;3.50;;
40997;SDS011;26740;45.944;12.480;2023-06-26T05:14:28;5.00;;;3.80;;
40997;SDS011;26740;45.944;12.480;2023-06-26T05:16:54;4.18;;;2.95;;
40997;SDS011;26740;45.944;12.480;2023-06-26T05:19:19;5.55;;;3.45;;
40997;SDS011;26740;45.944;12.480;2023-06-26T05:21:44;3.22;;;3.03;;
40997;SDS011;26740;45.944;12.480;2023-06-26T05:24:10;4.47;;;3.28;;
40997;SDS011;26740;45.944;12.480;2023-06-26T05:26:38;3.13;;;2.92;;
40997;SDS011;26740;45.944;12.480;2023-06-26T05:29:04;3.47;;;3.10;;
40997;SDS011;26740;45.944;12.480;2023-06-26T05:31:30;5.43;;;3.30;;
40997;SDS011;26740;45.944;12.480;2023-06-26T05:33:58;3.63;;;3.33;;
40997;SDS011;26740;45.944;12.480;2023-06-26T05:36:25;8.95;;;3.00;;
40997;SDS011;26740;45.944;12.480;2023-06-26T05:38:51;3.28;;;3.08;;
40997;SDS011;26740;45.944;12.480;2023-06-26T05:41:17;4.05;;;3.30;;
40997;SDS011;26740;45.944;12.480;2023-06-26T05:43:42;3.30;;;3.00;;
40997;SDS011;26740;45.944;12.480;2023-06-26T05:46:08;3.70;;;3.20;;
40997;SDS011;26740;45.944;12.480;2023-06-26T05:48:33;4.47;;;2.80;;
40997;SDS011;26740;45.944;12.480;2023-06-26T05:50:59;4.07;;;3.67;;
40997;SDS011;26740;45.944;12.480;2023-06-26T05:53:24;6.18;;;3.50;;
40997;SDS011;26740;45.944;12.480;2023-06-26T05:55:50;4.28;;;3.33;;
40997;SDS011;26740;45.944;12.480;2023-06-26T05:58:15;7.32;;;3.53;;
40997;SDS011;26740;45.944;12.480;2023-06-26T06:00:41;3.10;;;2.70;;
40997;SDS011;26740;45.944;12.480;2023-06-26T06:03:06;4.57;;;3.83;;
40997;SDS011;26740;45.944;12.480;2023-06-26T06:05:32;5.95;;;3.50;;
40997;SDS011;26740;45.944;12.480;2023-06-26T06:07:57;4.65;;;4.25;;
40997;SDS011;26740;45.944;12.480;2023-06-26T06:10:22;6.22;;;3.47;;
40997;SDS011;26740;45.944;12.480;2023-06-26T06:12:48;5.60;;;3.80;;
40997;SDS011;26740;45.944;12.480;2023-06-26T06:15:13;7.38;;;4.53;;
40997;SDS011;26740;45.944;12.480;2023-06-26T06:17:39;9.65;;;4.32;;
40997;SDS011;26740;45.944;12.480;2023-06-26T06:20:04;9.70;;;5.00;;
40997;SDS011;26740;45.944;12.480;2023-06-26T06:22:31;4.45;;;4.05;;
40997;SDS011;26740;45.944;12.480;2023-06-26T06:24:56;5.90;;;4.50;;
40997;SDS011;26740;45.944;12.480;2023-06-26T06:27:22;4.57;;;3.88;;
40997;SDS011;26740;45.944;12.480;2023-06-26T06:29:48;5.13;;;3.85;;
40997;SDS011;26740;45.944;12.480;2023-06-26T06:32:13;4.72;;;4.20;;
40997;SDS011;26740;45.944;12.480;2023-06-26T06:34:39;5.15;;;4.65;;
40997;SDS011;26740;45.944;12.480;2023-06-26T06:37:04;4.70;;;4.30;;
40997;SDS011;26740;45.944;12.480;2023-06-26T06:39:29;6.20;;;4.07;;
40997;SDS011;26740;45.944;12.480;2023-06-26T06:41:55;4.80;;;4.32;;
40997;SDS011;26740;45.944;12.480;2023-06-26T06:44:20;4.22;;;3.50;;
40997;SDS011;26740;45.944;12.480;2023-06-26T06:46:46;3.70;;;3.30;;
40997;SDS011;26740;45.944;12.480;2023-06-26T06:49:11;3.53;;;3.22;;
40997;SDS011;26740;45.944;12.480;2023-06-26T06:51:37;6.15;;;4.28;;
40997;SDS011;26740;45.944;12.480;2023-06-26T06:54:02;3.70;;;3.38;;
40997;SDS011;26740;45.944;12.480;2023-06-26T06:56:28;4.28;;;3.97;;
40997;SDS011;26740;45.944;12.480;2023-06-26T06:58:53;5.10;;;3.80;;
40997;SDS011;26740;45.944;12.480;2023-06-26T07:01:18;5.88;;;3.50;;
40997;SDS011;26740;45.944;12.480;2023-06-26T07:03:44;4.72;;;4.32;;
40997;SDS011;26740;45.944;12.480;2023-06-26T07:06:09;4.65;;;4.25;;
40997;SDS011;26740;45.944;12.480;2023-06-26T07:08:35;4.55;;;4.15;;
40997;SDS011;26740;45.944;12.480;2023-06-26T07:11:00;5.18;;;4.20;;
40997;SDS011;26740;45.944;12.480;2023-06-26T07:13:26;6.18;;;4.32;;
40997;SDS011;26740;45.944;12.480;2023-06-26T07:15:52;3.85;;;3.55;;
40997;SDS011;26740;45.944;12.480;2023-06-26T07:18:17;4.22;;;3.88;;
40997;SDS011;26740;45.944;12.480;2023-06-26T07:20:42;4.90;;;4.18;;
40997;SDS011;26740;45.944;12.480;2023-06-26T07:23:08;3.67;;;3.38;;
40997;SDS011;26740;45.944;12.480;2023-06-26T07:25:34;4.05;;;3.55;;
40997;SDS011;26740;45.944;12.480;2023-06-26T07:27:59;5.15;;;3.25;;
40997;SDS011;26740;45.944;12.480;2023-06-26T07:30:25;3.42;;;3.20;;
40997;SDS011;26740;45.944;12.480;2023-06-26T07:32:50;3.67;;;3.40;;
40997;SDS011;26740;45.944;12.480;2023-06-26T07:35:16;3.80;;;3.50;;
40997;SDS011;26740;45.944;12.480;2023-06-26T07:37:41;4.05;;;3.75;;
40997;SDS011;26740;45.944;12.480;2023-06-26T07:40:07;3.53;;;3.30;;
40997;SDS011;26740;45.944;12.480;2023-06-26T07:42:33;4.47;;;4.07;;
40997;SDS011;26740;45.944;12.480;2023-06-26T07:44:59;5.50;;;3.65;;
40997;SDS011;26740;45.944;12.480;2023-06-26T07:47:24;4.15;;;3.67;;
40997;SDS011;26740;45.944;12.480;2023-06-26T07:49:49;4.38;;;3.97;;
40997;SDS011;26740;45.944;12.480;2023-06-26T07:52:15;4.10;;;3.67;;
40997;SDS011;26740;45.944;12.480;2023-06-26T07:54:40;4.63;;;3.53;;
40997;SDS011;26740;45.944;12.480;2023-06-26T07:57:06;4.22;;;3.60;;
40997;SDS011;26740;45.944;12.480;2023-06-26T07:59:32;5.30;;;3.15;;
40997;SDS011;26740;45.944;12.480;2023-06-26T08:01:57;3.78;;;3.47;;
40997;SDS011;26740;45.944;12.480;2023-06-26T08:04:23;3.70;;;3.30;;
40997;SDS011;26740;45.944;12.480;2023-06-26T08:06:53;3.80;;;3.50;;
40997;SDS011;26740;45.944;12.480;2023-06-26T08:09:19;4.45;;;4.05;;
40997;SDS011;26740;45.944;12.480;2023-06-26T08:11:45;4.05;;;3.65;;
40997;SDS011;26740;45.944;12.480;2023-06-26T08:16:36;4.30;;;3.88;;
40997;SDS011;26740;45.944;12.480;2023-06-26T08:19:01;3.78;;;3.47;;
40997;SDS011;26740;45.944;12.480;2023-06-26T08:21:26;3.38;;;3.17;;
40997;SDS011;26740;45.944;12.480;2023-06-26T08:23:52;4.32;;;3.83;;
40997;SDS011;26740;45.944;12.480;2023-06-26T08:26:17;5.22;;;3.92;;
40997;SDS011;26740;45.944;12.480;2023-06-26T08:28:42;5.43;;;3.85;;
40997;SDS011;26740;45.944;12.480;2023-06-26T08:31:08;3.78;;;3.47;;
40997;SDS011;26740;45.944;12.480;2023-06-26T08:33:33;6.60;;;3.90;;
40997;SDS011;26740;45.944;12.480;2023-06-26T08:35:59;6.05;;;4.03;;
40997;SDS011;26740;45.944;12.480;2023-06-26T08:38:24;5.13;;;3.90;;
40997;SDS011;26740;45.944;12.480;2023-06-26T08:40:49;4.07;;;3.78;;
40997;SDS011;26740;45.944;12.480;2023-06-26T08:43:15;4.63;;;4.15;;
40997;SDS011;26740;45.944;12.480;2023-06-26T08:45:40;4.25;;;3.42;;
40997;SDS011;26740;45.944;12.480;2023-06-26T08:48:09;5.05;;;4.20;;
40997;SDS011;26740;45.944;12.480;2023-06-26T08:50:35;4.90;;;4.50;;
40997;SDS011;26740;45.944;12.480;2023-06-26T08:55:26;4.18;;;3.78;;
40997;SDS011;26740;45.944;12.480;2023-06-26T08:57:52;4.63;;;4.22;;
40997;SDS011;26740;45.944;12.480;2023-06-26T09:00:18;3.90;;;3.58;;
40997;SDS011;26740;45.944;12.480;2023-06-26T09:02:44;5.63;;;3.33;;
40997;SDS011;26740;45.944;12.480;2023-06-26T09:05:10;4.22;;;3.83;;
40997;SDS011;26740;45.944;12.480;2023-06-26T09:07:36;4.70;;;3.13;;
40997;SDS011;26740;45.944;12.480;2023-06-26T09:10:01;5.07;;;3.75;;
40997;SDS011;26740;45.944;12.480;2023-06-26T09:12:27;3.65;;;3.35;;
40997;SDS011;26740;45.944;12.480;2023-06-26T09:14:54;3.47;;;3.28;;
40997;SDS011;26740;45.944;12.480;2023-06-26T09:17:23;3.88;;;3.58;;
40997;SDS011;26740;45.944;12.480;2023-06-26T09:19:49;3.38;;;3.17;;
40997;SDS011;26740;45.944;12.480;2023-06-26T09:22:15;3.85;;;3.55;;
40997;SDS011;26740;45.944;12.480;2023-06-26T09:24:43;4.63;;;3.20;;
40997;SDS011;26740;45.944;12.480;2023-06-26T09:27:09;4.18;;;3.88;;
40997;SDS011;26740;45.944;12.480;2023-06-26T09:29:34;3.75;;;3.45;;
40997;SDS011;26740;45.944;12.480;2023-06-26T09:32:00;6.70;;;3.75;;
40997;SDS011;26740;45.944;12.480;2023-06-26T09:34:31;4.20;;;3.83;;
40997;SDS011;26740;45.944;12.480;2023-06-26T09:36:57;6.57;;;3.67;;
40997;SDS011;26740;45.944;12.480;2023-06-26T09:39:23;3.80;;;3.50;;
40997;SDS011;26740;45.944;12.480;2023-06-26T09:41:49;3.05;;;2.78;;
40997;SDS011;26740;45.944;12.480;2023-06-26T09:44:15;6.35;;;3.50;;
40997;SDS011;26740;45.944;12.480;2023-06-26T09:46:40;3.88;;;3.50;;
40997;SDS011;26740;45.944;12.480;2023-06-26T09:49:07;5.40;;;3.15;;
40997;SDS011;26740;45.944;12.480;2023-06-26T09:51:33;3.53;;;3.33;;
40997;SDS011;26740;45.944;12.480;2023-06-26T09:54:02;4.65;;;3.47;;
40997;SDS011;26740;45.944;12.480;2023-06-26T09:56:28;3.35;;;3.08;;
40997;SDS011;26740;45.944;12.480;2023-06-26T09:58:57;5.13;;;3.65;;
40997;SDS011;26740;45.944;12.480;2023-06-26T10:01:24;4.13;;;3.23;;
40997;SDS011;26740;45.944;12.480;2023-06-26T10:03:49;3.85;;;3.55;;
40997;SDS011;26740;45.944;12.480;2023-06-26T10:06:15;3.50;;;3.30;;
40997;SDS011;26740;45.944;12.480;2023-06-26T10:08:43;3.97;;;3.55;;
40997;SDS011;26740;45.944;12.480;2023-06-26T10:11:12;3.72;;;3.42;;
40997;SDS011;26740;45.944;12.480;2023-06-26T10:13:39;3.88;;;3.50;;
40997;SDS011;26740;45.944;12.480;2023-06-26T10:16:07;3.28;;;2.90;;
40997;SDS011;26740;45.944;12.480;2023-06-26T10:18:33;6.10;;;3.15;;
40997;SDS011;26740;45.944;12.480;2023-06-26T10:21:01;3.60;;;3.30;;
40997;SDS011;26740;45.944;12.480;2023-06-26T10:23:27;3.38;;;3.08;;
40997;SDS011;26740;45.944;12.480;2023-06-26T10:25:53;2.75;;;2.55;;
40997;SDS011;26740;45.944;12.480;2023-06-26T10:28:20;5.47;;;3.42;;
40997;SDS011;26740;45.944;12.480;2023-06-26T10:30:46;3.13;;;2.90;;
40997;SDS011;26740;45.944;12.480;2023-06-26T10:33:15;5.00;;;3.95;;
40997;SDS011;26740;45.944;12.480;2023-06-26T10:35:43;6.97;;;3.33;;
40997;SDS011;26740;45.944;12.480;2023-06-26T10:38:09;3.67;;;3.47;;
40997;SDS011;26740;45.944;12.480;2023-06-26T10:40:45;4.50;;;4.00;;
40997;SDS011;26740;45.944;12.480;2023-06-26T10:43:14;8.20;;;3.10;;
40997;SDS011;26740;45.944;12.480;2023-06-26T10:45:46;3.73;;;3.33;;
40997;SDS011;26740;45.944;12.480;2023-06-26T10:48:15;3.75;;;3.45;;
40997;SDS011;26740;45.944;12.480;2023-06-26T10:50:41;5.15;;;3.53;;
40997;SDS011;26740;45.944;12.480;2023-06-26T10:53:10;6.25;;;3.60;;
40997;SDS011;26740;45.944;12.480;2023-06-26T10:55:36;3.42;;;3.20;;
40997;SDS011;26740;45.944;12.480;2023-06-26T10:58:02;9.02;;;3.63;;
40997;SDS011;26740;45.944;12.480;2023-06-26T11:00:28;3.25;;;2.72;;
40997;SDS011;26740;45.944;12.480;2023-06-26T11:02:53;3.10;;;2.90;;
40997;SDS011;26740;45.944;12.480;2023-06-26T11:08:03;4.13;;;3.28;;
40997;SDS011;26740;45.944;12.480;2023-06-26T11:10:29;4.10;;;3.78;;
40997;SDS011;26740;45.944;12.480;2023-06-26T11:12:54;4.63;;;3.53;;
40997;SDS011;26740;45.944;12.480;2023-06-26T11:15:24;3.67;;;3.38;;
40997;SDS011;26740;45.944;12.480;2023-06-26T11:17:49;3.63;;;3.42;;
40997;SDS011;26740;45.944;12.480;2023-06-26T11:20:15;6.55;;;3.20;;
40997;SDS011;26740;45.944;12.480;2023-06-26T11:22:41;4.18;;;3.03;;
40997;SDS011;26740;45.944;12.480;2023-06-26T11:25:08;3.03;;;2.83;;
40997;SDS011;26740;45.944;12.480;2023-06-26T11:30:02;3.45;;;3.15;;
40997;SDS011;26740;45.944;12.480;2023-06-26T11:32:27;5.18;;;3.53;;
40997;SDS011;26740;45.944;12.480;2023-06-26T11:34:54;3.95;;;3.13;;
40997;SDS011;26740;45.944;12.480;2023-06-26T11:37:20;4.68;;;3.35;;
40997;SDS011;26740;45.944;12.480;2023-06-26T11:39:46;3.83;;;3.40;;
40997;SDS011;26740;45.944;12.480;2023-06-26T11:42:11;5.05;;;3.25;;
40997;SDS011;26740;45.944;12.480;2023-06-26T11:44:40;3.33;;;3.03;;
40997;SDS011;26740;45.944;12.480;2023-06-26T11:49:32;3.40;;;2.90;;
40997;SDS011;26740;45.944;12.480;2023-06-26T11:51:57;3.60;;;2.97;;
40997;SDS011;26740;45.944;12.480;2023-06-26T11:54:23;4.15;;;3.28;;
40997;SDS011;26740;45.944;12.480;2023-06-26T11:56:58;5.30;;;4.30;;
40997;SDS011;26740;45.944;12.480;2023-06-26T11:59:24;5.60;;;2.90;;
40997;SDS011;26740;45.944;12.480;2023-06-26T12:01:50;3.72;;;3.35;;
40997;SDS011;26740;45.944;12.480;2023-06-26T12:04:17;5.72;;;3.45;;
40997;SDS011;26740;45.944;12.480;2023-06-26T12:06:47;3.70;;;3.10;;
40997;SDS011;26740;45.944;12.480;2023-06-26T12:09:13;3.05;;;2.80;;
40997;SDS011;26740;45.944;12.480;2023-06-26T12:11:43;3.03;;;2.72;;
40997;SDS011;26740;45.944;12.480;2023-06-26T12:14:09;4.30;;;3.10;;
40997;SDS011;26740;45.944;12.480;2023-06-26T12:16:36;2.90;;;2.70;;
40997;SDS011;26740;45.944;12.480;2023-06-26T12:19:03;2.92;;;2.72;;
40997;SDS011;26740;45.944;12.480;2023-06-26T12:24:06;5.53;;;2.90;;
40997;SDS011;26740;45.944;12.480;2023-06-26T12:26:31;4.15;;;2.75;;
40997;SDS011;26740;45.944;12.480;2023-06-26T12:29:03;3.50;;;2.80;;
40997;SDS011;26740;45.944;12.480;2023-06-26T12:31:29;2.85;;;2.65;;
40997;SDS011;26740;45.944;12.480;2023-06-26T12:33:55;5.88;;;3.15;;
40997;SDS011;26740;45.944;12.480;2023-06-26T12:36:21;3.35;;;2.83;;
40997;SDS011;26740;45.944;12.480;2023-06-26T12:38:48;3.63;;;3.03;;
40997;SDS011;26740;45.944;12.480;2023-06-26T12:41:13;4.03;;;2.95;;
40997;SDS011;26740;45.944;12.480;2023-06-26T12:43:39;5.35;;;3.20;;
40997;SDS011;26740;45.944;12.480;2023-06-26T12:46:05;4.07;;;3.15;;
40997;SDS011;26740;45.944;12.480;2023-06-26T12:51:09;3.20;;;3.00;;
40997;SDS011;26740;45.944;12.480;2023-06-26T12:53:34;3.90;;;2.85;;
40997;SDS011;26740;45.944;12.480;2023-06-26T12:56:00;4.07;;;3.10;;
40997;SDS011;26740;45.944;12.480;2023-06-26T12:58:25;4.60;;;3.22;;
40997;SDS011;26740;45.944;12.480;2023-06-26T13:00:50;3.60;;;3.10;;
40997;SDS011;26740;45.944;12.480;2023-06-26T13:03:18;6.78;;;2.83;;
40997;SDS011;26740;45.944;12.480;2023-06-26T13:05:45;5.15;;;2.85;;
40997;SDS011;26740;45.944;12.480;2023-06-26T13:08:10;3.17;;;2.88;;
40997;SDS011;26740;45.944;12.480;2023-06-26T13:10:36;7.20;;;3.15;;
40997;SDS011;26740;45.944;12.480;2023-06-26T13:13:02;2.70;;;2.47;;
40997;SDS011;26740;45.944;12.480;2023-06-26T13:15:27;5.63;;;3.33;;
40997;SDS011;26740;45.944;12.480;2023-06-26T13:17:53;3.42;;;2.80;;
40997;SDS011;26740;45.944;12.480;2023-06-26T13:20:18;3.07;;;2.70;;
40997;SDS011;26740;45.944;12.480;2023-06-26T13:22:43;3.20;;;2.70;;
40997;SDS011;26740;45.944;12.480;2023-06-26T13:25:11;8.90;;;2.63;;
40997;SDS011;26740;45.944;12.480;2023-06-26T13:27:36;4.13;;;3.10;;
40997;SDS011;26740;45.944;12.480;2023-06-26T13:30:01;4.50;;;2.63;;
40997;SDS011;26740;45.944;12.480;2023-06-26T13:32:27;3.47;;;3.17;;
40997;SDS011;26740;45.944;12.480;2023-06-26T13:34:52;4.10;;;3.03;;
40997;SDS011;26740;45.944;12.480;2023-06-26T13:37:19;4.07;;;3.13;;
40997;SDS011;26740;45.944;12.480;2023-06-26T13:39:44;2.65;;;2.45;;
40997;SDS011;26740;45.944;12.480;2023-06-26T13:44:39;2.83;;;2.57;;
40997;SDS011;26740;45.944;12.480;2023-06-26T13:47:05;4.05;;;2.90;;
40997;SDS011;26740;45.944;12.480;2023-06-26T13:49:30;4.00;;;3.08;;
40997;SDS011;26740;45.944;12.480;2023-06-26T13:51:55;3.60;;;3.13;;
40997;SDS011;26740;45.944;12.480;2023-06-26T13:54:21;2.67;;;2.47;;
40997;SDS011;26740;45.944;12.480;2023-06-26T13:56:46;5.55;;;2.80;;
40997;SDS011;26740;45.944;12.480;2023-06-26T13:59:11;3.85;;;2.60;;
40997;SDS011;26740;45.944;12.480;2023-06-26T14:01:37;4.65;;;2.78;;
40997;SDS011;26740;45.944;12.480;2023-06-26T14:04:03;5.43;;;2.50;;
40997;SDS011;26740;45.944;12.480;2023-06-26T14:06:29;5.50;;;3.35;;
40997;SDS011;26740;45.944;12.480;2023-06-26T14:08:55;4.55;;;2.47;;
40997;SDS011;26740;45.944;12.480;2023-06-26T14:11:20;3.05;;;2.70;;
40997;SDS011;26740;45.944;12.480;2023-06-26T14:13:47;4.35;;;2.78;;
40997;SDS011;26740;45.944;12.480;2023-06-26T14:16:13;2.20;;;2.05;;
40997;SDS011;26740;45.944;12.480;2023-06-26T14:18:39;6.32;;;2.85;;
40997;SDS011;26740;45.944;12.480;2023-06-26T14:21:05;5.03;;;2.55;;
40997;SDS011;26740;45.944;12.480;2023-06-26T14:23:30;2.72;;;2.40;;
40997;SDS011;26740;45.944;12.480;2023-06-26T14:25:56;7.43;;;2.88;;
40997;SDS011;26740;45.944;12.480;2023-06-26T14:28:21;4.45;;;2.80;;
40997;SDS011;26740;45.944;12.480;2023-06-26T14:30:46;3.85;;;2.38;;
40997;SDS011;26740;45.944;12.480;2023-06-26T14:33:12;8.27;;;2.90;;
40997;SDS011;26740;45.944;12.480;2023-06-26T14:35:37;2.83;;;2.60;;
40997;SDS011;26740;45.944;12.480;2023-06-26T14:38:02;3.60;;;2.65;;
40997;SDS011;26740;45.944;12.480;2023-06-26T14:40:28;2.63;;;2.25;;
40997;SDS011;26740;45.944;12.480;2023-06-26T14:42:53;8.23;;;2.20;;
40997;SDS011;26740;45.944;12.480;2023-06-26T14:45:18;2.60;;;2.28;;
40997;SDS011;26740;45.944;12.480;2023-06-26T14:47:44;4.03;;;2.80;;
40997;SDS011;26740;45.944;12.480;2023-06-26T14:50:09;3.00;;;2.78;;